sensor_id;sensor_type;location;lat;lon;timestamp;pressure;altitude;pressure_sealevel;temperature;humidity
31092;BME280;17747;51.070;10.930;2022-12-15T00:01:39;99696.88;;;-12.30;61.97
31092;BME280;17747;51.070;10.930;2022-12-15T00:03:27;99687.16;;;-12.71;62.38
31092;BME280;17747;51.070;10.930;2022-12-15T00:05:16;99692.22;;;-12.38;62.43
31092;BME280;17747;51.070;10.930;2022-12-15T00:07:07;99688.81;;;-12.39;62.81
31092;BME280;17747;51.070;10.930;2022-12-15T00:08:56;99689.38;;;-12.61;62.67
31092;BME280;17747;51.070;10.930;2022-12-15T00:10:44;99683.97;;;-12.51;61.99
31092;BME280;17747;51.070;10.930;2022-12-15T00:12:33;99686.44;;;-12.18;62.42
31092;BME280;17747;51.070;10.930;2022-12-15T00:14:22;99674.00;;;-12.46;62.00
31092;BME280;17747;51.070;10.930;2022-12-15T00:16:11;99675.34;;;-12.36;62.36
31092;BME280;17747;51.070;10.930;2022-12-15T00:18:02;99679.88;;;-12.31;61.40
31092;BME280;17747;51.070;10.930;2022-12-15T00:19:51;99684.31;;;-12.27;61.51
31092;BME280;17747;51.070;10.930;2022-12-15T00:21:40;99679.56;;;-12.03;61.55
31092;BME280;17747;51.070;10.930;2022-12-15T00:23:30;99683.59;;;-12.24;61.42
31092;BME280;17747;51.070;10.930;2022-12-15T00:25:19;99683.13;;;-12.17;61.40
31092;BME280;17747;51.070;10.930;2022-12-15T00:27:08;99691.97;;;-12.09;61.00
31092;BME280;17747;51.070;10.930;2022-12-15T00:28:57;99689.16;;;-12.15;60.86
31092;BME280;17747;51.070;10.930;2022-12-15T00:30:45;99701.16;;;-11.95;60.89
31092;BME280;17747;51.070;10.930;2022-12-15T00:32:34;99692.75;;;-12.28;61.85
31092;BME280;17747;51.070;10.930;2022-12-15T00:34:23;99701.81;;;-12.33;61.37
31092;BME280;17747;51.070;10.930;2022-12-15T00:36:12;99705.44;;;-12.94;62.55
31092;BME280;17747;51.070;10.930;2022-12-15T00:38:05;99710.53;;;-12.94;62.79
31092;BME280;17747;51.070;10.930;2022-12-15T00:39:55;99705.69;;;-12.74;62.75
31092;BME280;17747;51.070;10.930;2022-12-15T00:41:28;99702.41;;;-12.38;62.88
31092;BME280;17747;51.070;10.930;2022-12-15T00:43:00;99704.44;;;-11.97;62.63
31092;BME280;17747;51.070;10.930;2022-12-15T00:44:31;99703.44;;;-12.01;61.89
31092;BME280;17747;51.070;10.930;2022-12-15T00:46:03;99710.66;;;-12.26;61.43
31092;BME280;17747;51.070;10.930;2022-12-15T00:47:52;99704.97;;;-12.21;61.51
31092;BME280;17747;51.070;10.930;2022-12-15T00:49:23;99714.53;;;-12.17;61.87
31092;BME280;17747;51.070;10.930;2022-12-15T00:51:12;99717.50;;;-11.73;61.28
31092;BME280;17747;51.070;10.930;2022-12-15T00:52:44;99715.41;;;-11.82;60.94
31092;BME280;17747;51.070;10.930;2022-12-15T00:54:33;99708.25;;;-12.23;61.07
31092;BME280;17747;51.070;10.930;2022-12-15T00:56:23;99710.44;;;-12.80;61.46
31092;BME280;17747;51.070;10.930;2022-12-15T00:58:11;99707.94;;;-13.11;63.13
31092;BME280;17747;51.070;10.930;2022-12-15T01:00:00;99700.69;;;-12.72;63.11
31092;BME280;17747;51.070;10.930;2022-12-15T01:01:49;99701.75;;;-12.34;62.22
31092;BME280;17747;51.070;10.930;2022-12-15T01:03:38;99708.09;;;-11.74;61.39
31092;BME280;17747;51.070;10.930;2022-12-15T01:05:27;99702.97;;;-11.58;60.15
31092;BME280;17747;51.070;10.930;2022-12-15T01:07:16;99703.91;;;-12.08;60.86
31092;BME280;17747;51.070;10.930;2022-12-15T01:09:05;99704.06;;;-12.55;60.66
31092;BME280;17747;51.070;10.930;2022-12-15T01:10:58;99708.56;;;-12.84;62.13
31092;BME280;17747;51.070;10.930;2022-12-15T01:12:48;99706.94;;;-12.65;61.90
31092;BME280;17747;51.070;10.930;2022-12-15T01:14:37;99717.09;;;-13.14;62.49
31092;BME280;17747;51.070;10.930;2022-12-15T01:16:26;99716.53;;;-13.25;62.88
31092;BME280;17747;51.070;10.930;2022-12-15T01:18:15;99711.78;;;-13.19;62.63
31092;BME280;17747;51.070;10.930;2022-12-15T01:20:05;99708.59;;;-12.99;62.07
31092;BME280;17747;51.070;10.930;2022-12-15T01:21:48;99717.25;;;-13.11;62.21
31092;BME280;17747;51.070;10.930;2022-12-15T01:23:20;99714.78;;;-13.26;62.74
31092;BME280;17747;51.070;10.930;2022-12-15T01:24:50;99712.03;;;-12.82;62.61
31092;BME280;17747;51.070;10.930;2022-12-15T01:26:22;99717.28;;;-12.62;62.01
31092;BME280;17747;51.070;10.930;2022-12-15T01:27:54;99716.88;;;-12.54;61.50
31092;BME280;17747;51.070;10.930;2022-12-15T01:29:25;99725.22;;;-13.05;61.78
31092;BME280;17747;51.070;10.930;2022-12-15T01:30:56;99724.34;;;-13.06;62.54
31092;BME280;17747;51.070;10.930;2022-12-15T01:32:28;99729.84;;;-12.65;62.53
31092;BME280;17747;51.070;10.930;2022-12-15T01:33:59;99735.38;;;-13.05;62.87
31092;BME280;17747;51.070;10.930;2022-12-15T01:35:31;99742.25;;;-12.72;63.17
31092;BME280;17747;51.070;10.930;2022-12-15T01:37:02;99735.09;;;-12.46;62.84
31092;BME280;17747;51.070;10.930;2022-12-15T01:38:33;99738.34;;;-12.32;62.38
31092;BME280;17747;51.070;10.930;2022-12-15T01:40:06;99729.88;;;-12.15;61.99
31092;BME280;17747;51.070;10.930;2022-12-15T01:41:55;99734.94;;;-11.99;61.79
31092;BME280;17747;51.070;10.930;2022-12-15T01:43:28;99739.16;;;-11.99;61.77
31092;BME280;17747;51.070;10.930;2022-12-15T01:46:46;99730.78;;;-11.97;61.59
31092;BME280;17747;51.070;10.930;2022-12-15T01:48:19;99732.78;;;-12.07;61.82
31092;BME280;17747;51.070;10.930;2022-12-15T01:49:53;99740.41;;;-11.73;61.42
31092;BME280;17747;51.070;10.930;2022-12-15T01:51:25;99744.78;;;-11.89;60.91
31092;BME280;17747;51.070;10.930;2022-12-15T01:52:58;99740.00;;;-12.65;61.79
31092;BME280;17747;51.070;10.930;2022-12-15T01:54:29;99737.06;;;-12.24;61.41
31092;BME280;17747;51.070;10.930;2022-12-15T01:56:03;99738.16;;;-12.19;61.68
31092;BME280;17747;51.070;10.930;2022-12-15T01:57:34;99744.22;;;-12.17;61.22
31092;BME280;17747;51.070;10.930;2022-12-15T01:59:08;99743.50;;;-12.15;60.87
31092;BME280;17747;51.070;10.930;2022-12-15T02:00:41;99738.34;;;-12.49;61.43
31092;BME280;17747;51.070;10.930;2022-12-15T02:02:12;99742.53;;;-12.33;61.89
31092;BME280;17747;51.070;10.930;2022-12-15T02:03:45;99741.53;;;-12.36;61.55
31092;BME280;17747;51.070;10.930;2022-12-15T02:05:17;99733.69;;;-12.74;61.95
31092;BME280;17747;51.070;10.930;2022-12-15T02:06:48;99721.81;;;-12.89;62.00
31092;BME280;17747;51.070;10.930;2022-12-15T02:08:22;99730.78;;;-12.96;62.37
31092;BME280;17747;51.070;10.930;2022-12-15T02:09:53;99724.59;;;-12.36;61.96
31092;BME280;17747;51.070;10.930;2022-12-15T02:11:41;99728.47;;;-12.26;61.70
31092;BME280;17747;51.070;10.930;2022-12-15T02:13:14;99732.84;;;-12.24;61.18
31092;BME280;17747;51.070;10.930;2022-12-15T02:15:01;99721.94;;;-12.21;61.41
31092;BME280;17747;51.070;10.930;2022-12-15T02:16:37;99728.00;;;-12.68;61.89
31092;BME280;17747;51.070;10.930;2022-12-15T02:18:12;99731.81;;;-12.92;62.85
31092;BME280;17747;51.070;10.930;2022-12-15T02:21:40;99714.84;;;-12.61;62.98
31092;BME280;17747;51.070;10.930;2022-12-15T02:25:15;99717.63;;;-11.88;61.89
31092;BME280;17747;51.070;10.930;2022-12-15T02:28:40;99715.81;;;-11.91;61.85
31092;BME280;17747;51.070;10.930;2022-12-15T02:30:29;99714.03;;;-11.58;61.80
31092;BME280;17747;51.070;10.930;2022-12-15T02:32:05;99721.00;;;-11.71;62.00
31092;BME280;17747;51.070;10.930;2022-12-15T02:33:39;99727.78;;;-11.54;62.40
31092;BME280;17747;51.070;10.930;2022-12-15T02:35:14;99732.66;;;-11.59;61.48
31092;BME280;17747;51.070;10.930;2022-12-15T02:36:47;99734.63;;;-11.53;61.88
31092;BME280;17747;51.070;10.930;2022-12-15T02:38:29;99731.47;;;-11.83;61.56
31092;BME280;17747;51.070;10.930;2022-12-15T02:40:02;99744.56;;;-11.75;62.11
31092;BME280;17747;51.070;10.930;2022-12-15T02:41:36;99750.94;;;-12.18;62.50
31092;BME280;17747;51.070;10.930;2022-12-15T02:43:07;99746.91;;;-12.14;62.75
31092;BME280;17747;51.070;10.930;2022-12-15T02:44:41;99750.50;;;-12.43;62.59
31092;BME280;17747;51.070;10.930;2022-12-15T02:46:18;99743.63;;;-12.12;62.82
31092;BME280;17747;51.070;10.930;2022-12-15T02:47:55;99740.97;;;-12.63;63.72
31092;BME280;17747;51.070;10.930;2022-12-15T02:49:30;99747.88;;;-12.45;64.46
31092;BME280;17747;51.070;10.930;2022-12-15T02:51:09;99754.84;;;-11.74;63.84
31092;BME280;17747;51.070;10.930;2022-12-15T02:52:46;99748.06;;;-11.91;64.08
31092;BME280;17747;51.070;10.930;2022-12-15T02:54:34;99754.91;;;-11.90;64.73
31092;BME280;17747;51.070;10.930;2022-12-15T02:56:09;99750.22;;;-11.28;63.84
31092;BME280;17747;51.070;10.930;2022-12-15T02:57:47;99739.09;;;-11.30;63.78
31092;BME280;17747;51.070;10.930;2022-12-15T02:59:24;99755.78;;;-11.18;64.06
31092;BME280;17747;51.070;10.930;2022-12-15T03:01:00;99749.97;;;-10.79;63.47
31092;BME280;17747;51.070;10.930;2022-12-15T03:02:35;99752.19;;;-10.48;63.26
31092;BME280;17747;51.070;10.930;2022-12-15T03:04:08;99748.41;;;-10.37;63.12
31092;BME280;17747;51.070;10.930;2022-12-15T03:05:41;99737.94;;;-10.81;64.48
31092;BME280;17747;51.070;10.930;2022-12-15T03:07:13;99747.91;;;-10.68;66.08
31092;BME280;17747;51.070;10.930;2022-12-15T03:08:43;99758.59;;;-10.57;66.92
31092;BME280;17747;51.070;10.930;2022-12-15T03:10:16;99755.22;;;-10.56;66.88
31092;BME280;17747;51.070;10.930;2022-12-15T03:11:48;99752.94;;;-10.50;67.53
31092;BME280;17747;51.070;10.930;2022-12-15T03:13:20;99751.66;;;-10.97;68.63
31092;BME280;17747;51.070;10.930;2022-12-15T03:14:51;99751.41;;;-11.03;69.04
31092;BME280;17747;51.070;10.930;2022-12-15T03:16:23;99752.56;;;-11.14;69.54
31092;BME280;17747;51.070;10.930;2022-12-15T03:17:55;99753.59;;;-11.11;70.10
31092;BME280;17747;51.070;10.930;2022-12-15T03:19:26;99748.19;;;-10.99;70.31
31092;BME280;17747;51.070;10.930;2022-12-15T03:20:57;99752.13;;;-10.11;68.61
31092;BME280;17747;51.070;10.930;2022-12-15T03:22:29;99749.91;;;-9.82;67.46
31092;BME280;17747;51.070;10.930;2022-12-15T03:24:00;99755.88;;;-9.82;66.43
31092;BME280;17747;51.070;10.930;2022-12-15T03:25:32;99745.03;;;-9.97;65.71
31092;BME280;17747;51.070;10.930;2022-12-15T03:27:03;99753.72;;;-10.13;65.47
31092;BME280;17747;51.070;10.930;2022-12-15T03:28:35;99753.94;;;-9.87;65.48
31092;BME280;17747;51.070;10.930;2022-12-15T03:30:07;99746.78;;;-9.75;64.32
31092;BME280;17747;51.070;10.930;2022-12-15T03:31:38;99750.97;;;-9.77;64.42
31092;BME280;17747;51.070;10.930;2022-12-15T03:33:10;99750.66;;;-9.64;63.65
31092;BME280;17747;51.070;10.930;2022-12-15T03:34:41;99745.34;;;-9.89;63.63
31092;BME280;17747;51.070;10.930;2022-12-15T03:36:14;99749.56;;;-10.11;63.87
31092;BME280;17747;51.070;10.930;2022-12-15T03:37:45;99750.44;;;-10.29;63.71
31092;BME280;17747;51.070;10.930;2022-12-15T03:39:17;99754.03;;;-10.45;64.01
31092;BME280;17747;51.070;10.930;2022-12-15T03:40:48;99757.63;;;-10.59;64.42
31092;BME280;17747;51.070;10.930;2022-12-15T03:42:19;99764.75;;;-10.33;63.83
31092;BME280;17747;51.070;10.930;2022-12-15T03:44:11;99763.78;;;-9.96;63.67
31092;BME280;17747;51.070;10.930;2022-12-15T03:45:43;99776.19;;;-9.85;63.29
31092;BME280;17747;51.070;10.930;2022-12-15T03:47:13;99772.69;;;-9.67;62.57
31092;BME280;17747;51.070;10.930;2022-12-15T03:48:46;99772.72;;;-10.06;63.35
31092;BME280;17747;51.070;10.930;2022-12-15T03:50:18;99775.88;;;-9.92;63.52
31092;BME280;17747;51.070;10.930;2022-12-15T03:51:49;99774.69;;;-10.39;64.21
31092;BME280;17747;51.070;10.930;2022-12-15T03:53:21;99779.06;;;-10.56;65.41
31092;BME280;17747;51.070;10.930;2022-12-15T03:54:52;99775.50;;;-10.40;65.61
31092;BME280;17747;51.070;10.930;2022-12-15T03:56:23;99773.72;;;-10.23;65.07
31092;BME280;17747;51.070;10.930;2022-12-15T03:57:54;99776.44;;;-10.38;64.83
31092;BME280;17747;51.070;10.930;2022-12-15T03:59:26;99776.72;;;-10.32;65.20
31092;BME280;17747;51.070;10.930;2022-12-15T04:00:57;99771.47;;;-10.16;65.20
31092;BME280;17747;51.070;10.930;2022-12-15T04:02:28;99777.69;;;-9.90;64.23
31092;BME280;17747;51.070;10.930;2022-12-15T04:04:00;99765.41;;;-9.98;64.51
31092;BME280;17747;51.070;10.930;2022-12-15T04:05:33;99767.56;;;-10.08;65.15
31092;BME280;17747;51.070;10.930;2022-12-15T04:07:04;99769.53;;;-10.02;64.35
31092;BME280;17747;51.070;10.930;2022-12-15T04:08:35;99773.38;;;-9.91;64.34
31092;BME280;17747;51.070;10.930;2022-12-15T04:10:06;99772.31;;;-9.96;63.97
31092;BME280;17747;51.070;10.930;2022-12-15T04:11:38;99775.88;;;-9.92;63.70
31092;BME280;17747;51.070;10.930;2022-12-15T04:13:10;99784.75;;;-10.04;64.11
31092;BME280;17747;51.070;10.930;2022-12-15T04:14:41;99785.25;;;-10.51;64.58
31092;BME280;17747;51.070;10.930;2022-12-15T04:16:13;99786.06;;;-10.89;65.11
31092;BME280;17747;51.070;10.930;2022-12-15T04:17:44;99788.66;;;-10.50;64.86
31092;BME280;17747;51.070;10.930;2022-12-15T04:19:16;99792.63;;;-10.94;64.49
31092;BME280;17747;51.070;10.930;2022-12-15T04:21:05;99792.34;;;-11.18;65.09
31092;BME280;17747;51.070;10.930;2022-12-15T04:22:37;99797.59;;;-11.51;66.01
31092;BME280;17747;51.070;10.930;2022-12-15T04:24:07;99802.56;;;-11.54;66.39
31092;BME280;17747;51.070;10.930;2022-12-15T04:25:56;99794.09;;;-11.70;66.89
31092;BME280;17747;51.070;10.930;2022-12-15T04:27:45;99806.63;;;-11.22;65.55
31092;BME280;17747;51.070;10.930;2022-12-15T04:29:34;99812.00;;;-11.15;64.71
31092;BME280;17747;51.070;10.930;2022-12-15T04:31:23;99809.94;;;-10.69;64.41
31092;BME280;17747;51.070;10.930;2022-12-15T04:33:13;99816.63;;;-10.90;63.89
31092;BME280;17747;51.070;10.930;2022-12-15T04:35:04;99828.59;;;-10.70;63.42
31092;BME280;17747;51.070;10.930;2022-12-15T04:36:53;99825.53;;;-10.63;63.15
31092;BME280;17747;51.070;10.930;2022-12-15T04:38:42;99824.66;;;-10.64;62.53
31092;BME280;17747;51.070;10.930;2022-12-15T04:40:31;99827.00;;;-10.86;62.63
31092;BME280;17747;51.070;10.930;2022-12-15T04:42:20;99821.63;;;-11.28;63.68
31092;BME280;17747;51.070;10.930;2022-12-15T04:44:09;99820.06;;;-11.43;64.01
31092;BME280;17747;51.070;10.930;2022-12-15T04:45:58;99817.97;;;-11.68;65.35
31092;BME280;17747;51.070;10.930;2022-12-15T04:47:47;99807.94;;;-11.65;65.64
31092;BME280;17747;51.070;10.930;2022-12-15T04:49:36;99817.38;;;-11.81;64.98
31092;BME280;17747;51.070;10.930;2022-12-15T04:51:26;99817.81;;;-11.71;65.30
31092;BME280;17747;51.070;10.930;2022-12-15T04:53:15;99823.28;;;-11.64;65.20
31092;BME280;17747;51.070;10.930;2022-12-15T04:55:05;99818.06;;;-11.13;64.38
31092;BME280;17747;51.070;10.930;2022-12-15T04:56:54;99802.16;;;-11.61;64.71
31092;BME280;17747;51.070;10.930;2022-12-15T04:58:43;99808.78;;;-11.83;64.73
31092;BME280;17747;51.070;10.930;2022-12-15T05:00:32;99814.44;;;-12.21;65.01
31092;BME280;17747;51.070;10.930;2022-12-15T05:02:21;99817.31;;;-12.47;64.90
31092;BME280;17747;51.070;10.930;2022-12-15T05:04:10;99818.41;;;-12.58;65.30
31092;BME280;17747;51.070;10.930;2022-12-15T05:05:59;99814.00;;;-11.79;64.75
31092;BME280;17747;51.070;10.930;2022-12-15T05:07:49;99816.38;;;-11.66;63.04
31092;BME280;17747;51.070;10.930;2022-12-15T05:09:38;99818.56;;;-11.56;62.81
31092;BME280;17747;51.070;10.930;2022-12-15T05:11:27;99818.31;;;-11.27;63.04
31092;BME280;17747;51.070;10.930;2022-12-15T05:13:16;99813.59;;;-11.71;63.18
31092;BME280;17747;51.070;10.930;2022-12-15T05:15:05;99811.34;;;-11.99;64.63
31092;BME280;17747;51.070;10.930;2022-12-15T05:16:54;99813.03;;;-11.65;63.90
31092;BME280;17747;51.070;10.930;2022-12-15T05:18:43;99811.72;;;-11.57;63.31
31092;BME280;17747;51.070;10.930;2022-12-15T05:20:32;99814.63;;;-11.32;62.41
31092;BME280;17747;51.070;10.930;2022-12-15T05:22:21;99833.16;;;-11.00;61.98
31092;BME280;17747;51.070;10.930;2022-12-15T05:24:12;99829.88;;;-10.80;61.72
31092;BME280;17747;51.070;10.930;2022-12-15T05:26:01;99843.06;;;-10.88;61.81
31092;BME280;17747;51.070;10.930;2022-12-15T05:27:50;99831.41;;;-11.19;61.55
31092;BME280;17747;51.070;10.930;2022-12-15T05:29:39;99838.34;;;-11.68;63.76
31092;BME280;17747;51.070;10.930;2022-12-15T05:31:28;99843.78;;;-11.27;62.60
31092;BME280;17747;51.070;10.930;2022-12-15T05:33:20;99845.16;;;-11.33;62.08
31092;BME280;17747;51.070;10.930;2022-12-15T05:34:52;99837.69;;;-11.64;63.19
31092;BME280;17747;51.070;10.930;2022-12-15T05:36:23;99837.91;;;-12.10;63.49
31092;BME280;17747;51.070;10.930;2022-12-15T05:37:55;99846.88;;;-11.84;63.76
31092;BME280;17747;51.070;10.930;2022-12-15T05:39:28;99849.78;;;-12.11;64.37
31092;BME280;17747;51.070;10.930;2022-12-15T05:40:59;99862.13;;;-12.02;63.85
31092;BME280;17747;51.070;10.930;2022-12-15T05:42:31;99852.00;;;-12.49;64.62
31092;BME280;17747;51.070;10.930;2022-12-15T05:44:02;99867.91;;;-11.88;64.18
31092;BME280;17747;51.070;10.930;2022-12-15T05:45:33;99861.47;;;-12.14;64.29
31092;BME280;17747;51.070;10.930;2022-12-15T05:47:04;99865.28;;;-12.06;64.54
31092;BME280;17747;51.070;10.930;2022-12-15T05:48:37;99864.00;;;-12.30;64.99
31092;BME280;17747;51.070;10.930;2022-12-15T05:50:08;99860.41;;;-12.50;65.94
31092;BME280;17747;51.070;10.930;2022-12-15T05:51:40;99860.09;;;-12.07;65.43
31092;BME280;17747;51.070;10.930;2022-12-15T05:53:12;99866.03;;;-12.56;65.64
31092;BME280;17747;51.070;10.930;2022-12-15T05:54:44;99862.25;;;-12.31;65.52
31092;BME280;17747;51.070;10.930;2022-12-15T05:56:16;99864.00;;;-12.47;65.21
31092;BME280;17747;51.070;10.930;2022-12-15T05:57:49;99869.44;;;-12.24;65.13
31092;BME280;17747;51.070;10.930;2022-12-15T05:59:21;99883.28;;;-11.70;64.03
31092;BME280;17747;51.070;10.930;2022-12-15T06:00:52;99897.03;;;-11.33;63.45
31092;BME280;17747;51.070;10.930;2022-12-15T06:02:23;99886.91;;;-11.49;62.50
31092;BME280;17747;51.070;10.930;2022-12-15T06:03:55;99890.44;;;-11.79;63.25
31092;BME280;17747;51.070;10.930;2022-12-15T06:05:26;99898.84;;;-11.48;63.08
31092;BME280;17747;51.070;10.930;2022-12-15T06:06:58;99897.25;;;-11.46;63.06
31092;BME280;17747;51.070;10.930;2022-12-15T06:08:30;99904.34;;;-11.23;62.49
31092;BME280;17747;51.070;10.930;2022-12-15T06:10:04;99913.13;;;-11.34;62.50
31092;BME280;17747;51.070;10.930;2022-12-15T06:11:35;99910.28;;;-11.40;62.23
31092;BME280;17747;51.070;10.930;2022-12-15T06:13:07;99909.44;;;-11.57;61.88
31092;BME280;17747;51.070;10.930;2022-12-15T06:14:38;99917.56;;;-11.47;62.42
31092;BME280;17747;51.070;10.930;2022-12-15T06:16:11;99917.72;;;-11.44;62.03
31092;BME280;17747;51.070;10.930;2022-12-15T06:17:42;99902.53;;;-12.24;63.25
31092;BME280;17747;51.070;10.930;2022-12-15T06:19:14;99916.94;;;-11.76;63.14
31092;BME280;17747;51.070;10.930;2022-12-15T06:20:44;99919.31;;;-11.95;63.29
31092;BME280;17747;51.070;10.930;2022-12-15T06:22:16;99928.41;;;-12.17;62.87
31092;BME280;17747;51.070;10.930;2022-12-15T06:23:47;99935.56;;;-12.10;63.45
31092;BME280;17747;51.070;10.930;2022-12-15T06:25:20;99943.25;;;-12.08;62.55
31092;BME280;17747;51.070;10.930;2022-12-15T06:26:51;99928.22;;;-12.82;63.69
31092;BME280;17747;51.070;10.930;2022-12-15T06:28:23;99938.81;;;-12.28;64.62
31092;BME280;17747;51.070;10.930;2022-12-15T06:29:54;99930.78;;;-12.51;64.11
31092;BME280;17747;51.070;10.930;2022-12-15T06:31:25;99933.28;;;-12.36;64.54
31092;BME280;17747;51.070;10.930;2022-12-15T06:32:57;99931.31;;;-12.09;64.27
31092;BME280;17747;51.070;10.930;2022-12-15T06:34:28;99928.00;;;-11.92;62.94
31092;BME280;17747;51.070;10.930;2022-12-15T06:36:00;99925.63;;;-12.05;63.29
31092;BME280;17747;51.070;10.930;2022-12-15T06:37:32;99931.56;;;-12.21;63.73
31092;BME280;17747;51.070;10.930;2022-12-15T06:39:04;99922.44;;;-12.48;64.02
31092;BME280;17747;51.070;10.930;2022-12-15T06:40:37;99923.38;;;-12.15;64.65
31092;BME280;17747;51.070;10.930;2022-12-15T06:42:08;99929.28;;;-11.84;64.23
31092;BME280;17747;51.070;10.930;2022-12-15T06:43:40;99925.78;;;-12.02;64.04
31092;BME280;17747;51.070;10.930;2022-12-15T06:45:12;99931.28;;;-11.78;63.31
31092;BME280;17747;51.070;10.930;2022-12-15T06:46:43;99918.75;;;-12.22;63.71
31092;BME280;17747;51.070;10.930;2022-12-15T06:48:15;99921.72;;;-12.15;63.34
31092;BME280;17747;51.070;10.930;2022-12-15T06:49:46;99927.72;;;-11.82;63.94
31092;BME280;17747;51.070;10.930;2022-12-15T06:51:17;99924.28;;;-11.82;62.88
31092;BME280;17747;51.070;10.930;2022-12-15T06:52:48;99921.94;;;-12.26;63.68
31092;BME280;17747;51.070;10.930;2022-12-15T06:54:20;99922.53;;;-12.30;63.83
31092;BME280;17747;51.070;10.930;2022-12-15T06:55:54;99931.81;;;-12.00;63.42
31092;BME280;17747;51.070;10.930;2022-12-15T06:57:29;99930.72;;;-12.67;64.24
31092;BME280;17747;51.070;10.930;2022-12-15T06:59:01;99932.59;;;-12.79;65.24
31092;BME280;17747;51.070;10.930;2022-12-15T07:00:32;99942.44;;;-12.54;64.65
31092;BME280;17747;51.070;10.930;2022-12-15T07:02:08;99941.66;;;-12.53;65.10
31092;BME280;17747;51.070;10.930;2022-12-15T07:03:45;99948.00;;;-12.61;65.25
31092;BME280;17747;51.070;10.930;2022-12-15T07:05:16;99945.00;;;-12.07;64.61
31092;BME280;17747;51.070;10.930;2022-12-15T07:06:47;99949.28;;;-11.91;63.68
31092;BME280;17747;51.070;10.930;2022-12-15T07:08:19;99940.47;;;-12.60;64.40
31092;BME280;17747;51.070;10.930;2022-12-15T07:09:50;99943.91;;;-12.43;64.33
31092;BME280;17747;51.070;10.930;2022-12-15T07:11:23;99947.38;;;-12.26;63.92
31092;BME280;17747;51.070;10.930;2022-12-15T07:12:55;99944.13;;;-12.55;64.22
31092;BME280;17747;51.070;10.930;2022-12-15T07:14:26;99949.22;;;-12.55;64.96
31092;BME280;17747;51.070;10.930;2022-12-15T07:15:58;99940.41;;;-11.98;64.91
31092;BME280;17747;51.070;10.930;2022-12-15T07:17:29;99945.84;;;-11.92;63.86
31092;BME280;17747;51.070;10.930;2022-12-15T07:19:01;99956.28;;;-11.71;63.45
31092;BME280;17747;51.070;10.930;2022-12-15T07:20:32;99959.19;;;-12.12;63.84
31092;BME280;17747;51.070;10.930;2022-12-15T07:22:04;99959.03;;;-11.99;63.63
31092;BME280;17747;51.070;10.930;2022-12-15T07:23:35;99958.38;;;-12.11;63.35
31092;BME280;17747;51.070;10.930;2022-12-15T07:25:07;99955.81;;;-11.80;63.20
31092;BME280;17747;51.070;10.930;2022-12-15T07:26:40;99962.50;;;-11.82;62.77
31092;BME280;17747;51.070;10.930;2022-12-15T07:28:12;99964.06;;;-12.00;63.21
31092;BME280;17747;51.070;10.930;2022-12-15T07:29:44;99959.47;;;-12.22;63.25
31092;BME280;17747;51.070;10.930;2022-12-15T07:31:15;99956.91;;;-12.38;63.71
31092;BME280;17747;51.070;10.930;2022-12-15T07:32:47;99954.47;;;-12.52;65.15
31092;BME280;17747;51.070;10.930;2022-12-15T07:34:18;99966.66;;;-12.15;63.80
31092;BME280;17747;51.070;10.930;2022-12-15T07:35:53;99964.78;;;-12.34;63.33
31092;BME280;17747;51.070;10.930;2022-12-15T07:37:24;99974.09;;;-11.87;62.96
31092;BME280;17747;51.070;10.930;2022-12-15T07:38:56;99975.97;;;-12.47;63.71
31092;BME280;17747;51.070;10.930;2022-12-15T07:40:27;99979.13;;;-11.72;63.66
31092;BME280;17747;51.070;10.930;2022-12-15T07:42:00;99988.28;;;-11.76;62.89
31092;BME280;17747;51.070;10.930;2022-12-15T07:43:31;99986.91;;;-11.86;62.75
31092;BME280;17747;51.070;10.930;2022-12-15T07:45:03;99991.22;;;-11.85;63.12
31092;BME280;17747;51.070;10.930;2022-12-15T07:46:36;99989.16;;;-11.75;62.65
31092;BME280;17747;51.070;10.930;2022-12-15T07:48:07;100001.38;;;-12.01;62.45
31092;BME280;17747;51.070;10.930;2022-12-15T07:49:39;100001.38;;;-12.01;62.78
31092;BME280;17747;51.070;10.930;2022-12-15T07:51:10;100013.09;;;-11.88;62.70
31092;BME280;17747;51.070;10.930;2022-12-15T07:52:42;100007.19;;;-12.03;62.80
31092;BME280;17747;51.070;10.930;2022-12-15T07:54:14;100009.97;;;-11.99;63.54
31092;BME280;17747;51.070;10.930;2022-12-15T07:55:51;100009.31;;;-11.80;63.33
31092;BME280;17747;51.070;10.930;2022-12-15T07:57:25;100005.16;;;-11.94;63.72
31092;BME280;17747;51.070;10.930;2022-12-15T07:58:57;100013.44;;;-11.82;64.10
31092;BME280;17747;51.070;10.930;2022-12-15T08:00:28;100013.56;;;-11.48;63.51
31092;BME280;17747;51.070;10.930;2022-12-15T08:02:00;100012.78;;;-11.29;62.89
31092;BME280;17747;51.070;10.930;2022-12-15T08:03:33;100014.75;;;-11.58;62.56
31092;BME280;17747;51.070;10.930;2022-12-15T08:05:05;100018.38;;;-11.69;64.36
31092;BME280;17747;51.070;10.930;2022-12-15T08:06:37;100022.94;;;-11.47;63.51
31092;BME280;17747;51.070;10.930;2022-12-15T08:08:08;100021.38;;;-11.27;63.81
31092;BME280;17747;51.070;10.930;2022-12-15T08:09:40;100033.31;;;-11.60;64.31
31092;BME280;17747;51.070;10.930;2022-12-15T08:11:12;100034.22;;;-11.26;64.55
31092;BME280;17747;51.070;10.930;2022-12-15T08:12:46;100036.16;;;-10.87;63.74
31092;BME280;17747;51.070;10.930;2022-12-15T08:14:18;100044.81;;;-11.51;63.99
31092;BME280;17747;51.070;10.930;2022-12-15T08:15:51;100051.94;;;-11.92;64.58
31092;BME280;17747;51.070;10.930;2022-12-15T08:17:23;100055.47;;;-11.74;64.28
31092;BME280;17747;51.070;10.930;2022-12-15T08:18:55;100062.09;;;-11.61;63.96
31092;BME280;17747;51.070;10.930;2022-12-15T08:20:27;100058.66;;;-11.62;64.54
31092;BME280;17747;51.070;10.930;2022-12-15T08:21:59;100057.97;;;-11.43;63.73
31092;BME280;17747;51.070;10.930;2022-12-15T08:23:31;100051.97;;;-11.11;63.55
31092;BME280;17747;51.070;10.930;2022-12-15T08:25:03;100046.19;;;-10.74;62.49
31092;BME280;17747;51.070;10.930;2022-12-15T08:26:34;100036.22;;;-10.70;62.81
31092;BME280;17747;51.070;10.930;2022-12-15T08:28:08;100045.41;;;-10.38;62.25